This is the latest recevied weather packets stored in our database for station/object KF4PPJ. If no packets are shown the sender has not sent any weather packets the latest 10 day(s).
| Time | Temp. | Humidity | Pressure | Rain* | Wind** | Luminosity | Snow |
|---|---|---|---|---|---|---|---|
| 1778032542 | 17.22° C | 71% | 1017.8 hPa | 0 mm | - | 49 W/m² | - |
| 1778032238 | 17.22° C | 71% | 1017.7 hPa | 0 mm | - | 52 W/m² | - |
| 1778031936 | 17.22° C | 69% | 1017.7 hPa | 0 mm | - | 51 W/m² | - |
| 1778031330 | 17.22° C | 70% | 1017.7 hPa | 0 mm | - | 53 W/m² | - |
| 1778030723 | 17.78° C | 68% | 1017.8 hPa | 0 mm | - | 59 W/m² | - |
| 1778030420 | 17.78° C | 68% | 1017.9 hPa | 0 mm | - | 90 W/m² | - |
| 1778029814 | 17.78° C | 67% | 1017.9 hPa | 0 mm | - | 211 W/m² | - |
| 1778028907 | 18.33° C | 67% | 1018 hPa | 0 mm | - | 294 W/m² | - |
| 1778027692 | 18.33° C | 67% | 1018.1 hPa | 0 mm | - | 323 W/m² | - |
| 1778027085 | 18.33° C | 66% | 1018.2 hPa | 0 mm | - | 367 W/m² | - |
| 1778026175 | 18.33° C | 67% | 1018.2 hPa | 0 mm | - | 411 W/m² | - |
| 1778025872 | 18.33° C | 66% | 1018.3 hPa | 0 mm | - | 436 W/m² | - |
| 1778025267 | 18.33° C | 67% | 1018.2 hPa | 0 mm | - | 437 W/m² | - |
| 1778023753 | 17.78° C | 68% | 1018.6 hPa | 0 mm | - | 495 W/m² | - |
| 1778023451 | 17.78° C | 68% | 1018.6 hPa | 0 mm | - | 386 W/m² | - |
| 1778022845 | 17.78° C | 67% | 1018.8 hPa | 0 mm | - | 521 W/m² | - |
| 1778021329 | 16.67° C | 70% | 1018.6 hPa | 0 mm | - | 372 W/m² | - |
| 1778021027 | 16.67° C | 71% | 1019 hPa | 0 mm | - | 322 W/m² | - |
| 1778020116 | 17.22° C | 70% | 1019 hPa | 0 mm | - | 366 W/m² | - |
| 1778019812 | 16.67° C | 70% | 1019.1 hPa | 0 mm | - | 330 W/m² | - |
| 1778019510 | 16.11° C | 72% | 1018.9 hPa | 0 mm | - | 335 W/m² | - |
| 1778016481 | 16.11° C | 72% | 1019.4 hPa | 0 mm | - | 318 W/m² | - |
| 1778016179 | 16.11° C | 73% | 1019.4 hPa | 0 mm | - | 301 W/m² | - |
| 1778015573 | 15.56° C | 74% | 1019.3 hPa | 0 mm | - | 277 W/m² | - |
| 1778015271 | 15.56° C | 74% | 1019.4 hPa | 0 mm | - | 271 W/m² | - |
* Rain latest hour (hover to see other rain measurements)
** Current wind speed in m/s (hover to see current wind gust speed)